sensor_id;sensor_type;location;lat;lon;timestamp;P1;durP1;ratioP1;P2;durP2;ratioP2
3379;SDS011;1703;51.964;7.642;2023-02-21T00:02:38;66.40;;;32.73;;
3379;SDS011;1703;51.964;7.642;2023-02-21T00:05:23;65.53;;;33.20;;
3379;SDS011;1703;51.964;7.642;2023-02-21T00:08:07;58.80;;;32.80;;
3379;SDS011;1703;51.964;7.642;2023-02-21T00:10:52;52.90;;;32.60;;
3379;SDS011;1703;51.964;7.642;2023-02-21T00:13:37;68.23;;;33.87;;
3379;SDS011;1703;51.964;7.642;2023-02-21T00:16:22;59.90;;;32.30;;
3379;SDS011;1703;51.964;7.642;2023-02-21T00:19:06;61.50;;;33.03;;
3379;SDS011;1703;51.964;7.642;2023-02-21T00:21:51;66.77;;;33.17;;
3379;SDS011;1703;51.964;7.642;2023-02-21T00:24:35;58.57;;;30.27;;
3379;SDS011;1703;51.964;7.642;2023-02-21T00:27:20;51.13;;;30.43;;
3379;SDS011;1703;51.964;7.642;2023-02-21T00:30:06;67.10;;;33.10;;
3379;SDS011;1703;51.964;7.642;2023-02-21T00:32:51;63.37;;;33.37;;
3379;SDS011;1703;51.964;7.642;2023-02-21T00:35:36;63.33;;;32.27;;
3379;SDS011;1703;51.964;7.642;2023-02-21T00:38:20;61.33;;;33.37;;
3379;SDS011;1703;51.964;7.642;2023-02-21T00:41:05;70.80;;;33.50;;
3379;SDS011;1703;51.964;7.642;2023-02-21T00:43:49;52.07;;;30.17;;
3379;SDS011;1703;51.964;7.642;2023-02-21T00:46:35;47.03;;;30.03;;
3379;SDS011;1703;51.964;7.642;2023-02-21T00:49:20;60.80;;;32.83;;
3379;SDS011;1703;51.964;7.642;2023-02-21T00:52:04;55.17;;;30.87;;
3379;SDS011;1703;51.964;7.642;2023-02-21T00:54:49;60.50;;;33.43;;
3379;SDS011;1703;51.964;7.642;2023-02-21T00:57:33;62.97;;;35.67;;
3379;SDS011;1703;51.964;7.642;2023-02-21T01:00:18;66.43;;;33.47;;
3379;SDS011;1703;51.964;7.642;2023-02-21T01:03:05;54.10;;;31.07;;
3379;SDS011;1703;51.964;7.642;2023-02-21T01:05:50;59.90;;;31.13;;
3379;SDS011;1703;51.964;7.642;2023-02-21T01:08:35;70.47;;;33.60;;
3379;SDS011;1703;51.964;7.642;2023-02-21T01:11:23;61.90;;;33.80;;
3379;SDS011;1703;51.964;7.642;2023-02-21T01:14:07;59.10;;;32.03;;
3379;SDS011;1703;51.964;7.642;2023-02-21T01:16:52;66.37;;;33.63;;
3379;SDS011;1703;51.964;7.642;2023-02-21T01:19:38;65.80;;;33.07;;
3379;SDS011;1703;51.964;7.642;2023-02-21T01:22:23;68.10;;;31.27;;
3379;SDS011;1703;51.964;7.642;2023-02-21T01:25:08;75.33;;;35.60;;
3379;SDS011;1703;51.964;7.642;2023-02-21T01:27:53;70.70;;;36.67;;
3379;SDS011;1703;51.964;7.642;2023-02-21T01:30:37;66.07;;;34.00;;
3379;SDS011;1703;51.964;7.642;2023-02-21T01:33:22;61.63;;;32.70;;
3379;SDS011;1703;51.964;7.642;2023-02-21T01:36:08;57.30;;;33.13;;
3379;SDS011;1703;51.964;7.642;2023-02-21T01:38:53;65.27;;;32.87;;
3379;SDS011;1703;51.964;7.642;2023-02-21T01:41:37;73.37;;;36.37;;
3379;SDS011;1703;51.964;7.642;2023-02-21T01:44:30;71.73;;;36.13;;
3379;SDS011;1703;51.964;7.642;2023-02-21T01:47:18;71.73;;;36.60;;
3379;SDS011;1703;51.964;7.642;2023-02-21T01:50:05;67.97;;;35.13;;
3379;SDS011;1703;51.964;7.642;2023-02-21T01:52:57;81.50;;;38.47;;
3379;SDS011;1703;51.964;7.642;2023-02-21T01:55:43;66.40;;;35.77;;
3379;SDS011;1703;51.964;7.642;2023-02-21T01:58:28;63.67;;;31.83;;
3379;SDS011;1703;51.964;7.642;2023-02-21T02:01:16;76.30;;;36.50;;
3379;SDS011;1703;51.964;7.642;2023-02-21T02:04:07;75.03;;;36.60;;
3379;SDS011;1703;51.964;7.642;2023-02-21T02:06:51;71.43;;;35.77;;
3379;SDS011;1703;51.964;7.642;2023-02-21T02:09:37;70.83;;;34.80;;
3379;SDS011;1703;51.964;7.642;2023-02-21T02:12:28;69.13;;;34.00;;
3379;SDS011;1703;51.964;7.642;2023-02-21T02:15:10;71.30;;;35.50;;
3379;SDS011;1703;51.964;7.642;2023-02-21T02:17:51;70.20;;;36.83;;
3379;SDS011;1703;51.964;7.642;2023-02-21T02:20:42;62.63;;;34.53;;
3379;SDS011;1703;51.964;7.642;2023-02-21T02:23:33;72.17;;;37.30;;
3379;SDS011;1703;51.964;7.642;2023-02-21T02:29:38;76.37;;;39.70;;
3379;SDS011;1703;51.964;7.642;2023-02-21T02:32:23;68.33;;;36.00;;
3379;SDS011;1703;51.964;7.642;2023-02-21T02:35:03;75.53;;;35.93;;
3379;SDS011;1703;51.964;7.642;2023-02-21T02:37:34;76.93;;;37.77;;
3379;SDS011;1703;51.964;7.642;2023-02-21T02:40:09;76.80;;;36.30;;
3379;SDS011;1703;51.964;7.642;2023-02-21T02:42:47;78.63;;;38.63;;
3379;SDS011;1703;51.964;7.642;2023-02-21T02:45:22;75.50;;;35.17;;
3379;SDS011;1703;51.964;7.642;2023-02-21T02:48:01;80.40;;;36.73;;
3379;SDS011;1703;51.964;7.642;2023-02-21T02:50:32;78.47;;;37.33;;
3379;SDS011;1703;51.964;7.642;2023-02-21T02:53:02;86.37;;;39.43;;
3379;SDS011;1703;51.964;7.642;2023-02-21T02:55:33;79.87;;;38.20;;
3379;SDS011;1703;51.964;7.642;2023-02-21T02:58:04;98.97;;;39.27;;
3379;SDS011;1703;51.964;7.642;2023-02-21T03:00:32;75.73;;;36.73;;
3379;SDS011;1703;51.964;7.642;2023-02-21T03:03:06;89.03;;;37.53;;
3379;SDS011;1703;51.964;7.642;2023-02-21T03:05:52;83.57;;;40.73;;
3379;SDS011;1703;51.964;7.642;2023-02-21T03:08:34;79.40;;;38.33;;
3379;SDS011;1703;51.964;7.642;2023-02-21T03:11:08;77.93;;;38.10;;
3379;SDS011;1703;51.964;7.642;2023-02-21T03:13:42;62.93;;;34.43;;
3379;SDS011;1703;51.964;7.642;2023-02-21T03:16:15;74.23;;;38.13;;
3379;SDS011;1703;51.964;7.642;2023-02-21T03:18:47;75.50;;;39.63;;
3379;SDS011;1703;51.964;7.642;2023-02-21T03:21:20;68.37;;;37.40;;
3379;SDS011;1703;51.964;7.642;2023-02-21T03:23:51;79.10;;;38.43;;
3379;SDS011;1703;51.964;7.642;2023-02-21T03:26:22;90.60;;;40.50;;
3379;SDS011;1703;51.964;7.642;2023-02-21T03:28:55;94.03;;;40.23;;
3379;SDS011;1703;51.964;7.642;2023-02-21T03:31:23;85.53;;;40.47;;
3379;SDS011;1703;51.964;7.642;2023-02-21T03:33:56;81.60;;;38.00;;
3379;SDS011;1703;51.964;7.642;2023-02-21T03:36:27;89.07;;;39.70;;
3379;SDS011;1703;51.964;7.642;2023-02-21T03:38:56;75.47;;;38.77;;
3379;SDS011;1703;51.964;7.642;2023-02-21T03:41:23;79.57;;;37.80;;
3379;SDS011;1703;51.964;7.642;2023-02-21T03:43:50;81.40;;;40.70;;
3379;SDS011;1703;51.964;7.642;2023-02-21T03:46:17;79.27;;;36.30;;
3379;SDS011;1703;51.964;7.642;2023-02-21T03:48:44;76.13;;;37.67;;
3379;SDS011;1703;51.964;7.642;2023-02-21T03:51:18;77.70;;;38.03;;
3379;SDS011;1703;51.964;7.642;2023-02-21T03:53:47;79.83;;;40.73;;
3379;SDS011;1703;51.964;7.642;2023-02-21T03:56:17;87.87;;;39.07;;
3379;SDS011;1703;51.964;7.642;2023-02-21T03:58:59;80.97;;;40.53;;
3379;SDS011;1703;51.964;7.642;2023-02-21T04:01:27;85.97;;;38.37;;
3379;SDS011;1703;51.964;7.642;2023-02-21T04:03:54;85.70;;;41.00;;
3379;SDS011;1703;51.964;7.642;2023-02-21T04:06:22;74.93;;;39.53;;
3379;SDS011;1703;51.964;7.642;2023-02-21T04:08:50;89.50;;;42.33;;
3379;SDS011;1703;51.964;7.642;2023-02-21T04:11:18;92.63;;;40.13;;
3379;SDS011;1703;51.964;7.642;2023-02-21T04:13:46;89.80;;;39.30;;
3379;SDS011;1703;51.964;7.642;2023-02-21T04:16:13;76.77;;;38.80;;
3379;SDS011;1703;51.964;7.642;2023-02-21T04:18:40;84.40;;;41.13;;
3379;SDS011;1703;51.964;7.642;2023-02-21T04:21:09;77.40;;;40.10;;
3379;SDS011;1703;51.964;7.642;2023-02-21T04:23:36;81.30;;;41.90;;
3379;SDS011;1703;51.964;7.642;2023-02-21T04:26:05;100.37;;;41.47;;
3379;SDS011;1703;51.964;7.642;2023-02-21T04:28:44;80.57;;;39.27;;
3379;SDS011;1703;51.964;7.642;2023-02-21T04:31:12;86.33;;;38.40;;
3379;SDS011;1703;51.964;7.642;2023-02-21T04:33:40;101.50;;;42.10;;
3379;SDS011;1703;51.964;7.642;2023-02-21T04:36:08;100.10;;;40.97;;
3379;SDS011;1703;51.964;7.642;2023-02-21T04:38:40;96.33;;;41.47;;
3379;SDS011;1703;51.964;7.642;2023-02-21T04:41:08;119.87;;;43.00;;
3379;SDS011;1703;51.964;7.642;2023-02-21T04:43:35;93.27;;;43.60;;
3379;SDS011;1703;51.964;7.642;2023-02-21T04:46:02;112.23;;;45.00;;
3379;SDS011;1703;51.964;7.642;2023-02-21T04:48:29;104.73;;;46.57;;
3379;SDS011;1703;51.964;7.642;2023-02-21T04:50:56;104.60;;;43.40;;
3379;SDS011;1703;51.964;7.642;2023-02-21T04:53:22;104.33;;;42.70;;
3379;SDS011;1703;51.964;7.642;2023-02-21T04:55:49;122.47;;;43.73;;
3379;SDS011;1703;51.964;7.642;2023-02-21T04:58:17;91.37;;;40.63;;
3379;SDS011;1703;51.964;7.642;2023-02-21T05:00:44;101.13;;;43.43;;
3379;SDS011;1703;51.964;7.642;2023-02-21T05:03:11;115.27;;;45.27;;
3379;SDS011;1703;51.964;7.642;2023-02-21T05:05:37;102.73;;;43.97;;
3379;SDS011;1703;51.964;7.642;2023-02-21T05:08:04;100.67;;;41.50;;
3379;SDS011;1703;51.964;7.642;2023-02-21T05:10:31;103.37;;;39.00;;
3379;SDS011;1703;51.964;7.642;2023-02-21T05:12:58;83.33;;;39.20;;
3379;SDS011;1703;51.964;7.642;2023-02-21T05:15:26;91.30;;;39.43;;
3379;SDS011;1703;51.964;7.642;2023-02-21T05:17:53;95.00;;;40.43;;
3379;SDS011;1703;51.964;7.642;2023-02-21T05:20:19;98.97;;;39.50;;
3379;SDS011;1703;51.964;7.642;2023-02-21T05:22:46;95.50;;;42.93;;
3379;SDS011;1703;51.964;7.642;2023-02-21T05:25:14;94.10;;;39.60;;
3379;SDS011;1703;51.964;7.642;2023-02-21T05:27:42;94.23;;;40.47;;
3379;SDS011;1703;51.964;7.642;2023-02-21T05:30:10;95.57;;;39.43;;
3379;SDS011;1703;51.964;7.642;2023-02-21T05:32:40;93.43;;;37.67;;
3379;SDS011;1703;51.964;7.642;2023-02-21T05:35:07;90.40;;;38.50;;
3379;SDS011;1703;51.964;7.642;2023-02-21T05:37:35;96.40;;;37.17;;
3379;SDS011;1703;51.964;7.642;2023-02-21T05:40:02;92.53;;;38.07;;
3379;SDS011;1703;51.964;7.642;2023-02-21T05:42:30;75.70;;;34.00;;
3379;SDS011;1703;51.964;7.642;2023-02-21T05:44:57;86.13;;;40.70;;
3379;SDS011;1703;51.964;7.642;2023-02-21T05:47:23;86.90;;;34.90;;
3379;SDS011;1703;51.964;7.642;2023-02-21T05:49:52;89.90;;;35.17;;
3379;SDS011;1703;51.964;7.642;2023-02-21T05:52:18;101.90;;;37.27;;
3379;SDS011;1703;51.964;7.642;2023-02-21T05:54:45;88.17;;;37.60;;
3379;SDS011;1703;51.964;7.642;2023-02-21T05:57:12;90.40;;;38.00;;
3379;SDS011;1703;51.964;7.642;2023-02-21T05:59:39;103.07;;;37.10;;
3379;SDS011;1703;51.964;7.642;2023-02-21T06:02:05;101.07;;;38.53;;
3379;SDS011;1703;51.964;7.642;2023-02-21T06:04:32;101.70;;;37.33;;
3379;SDS011;1703;51.964;7.642;2023-02-21T06:07:00;111.13;;;40.20;;
3379;SDS011;1703;51.964;7.642;2023-02-21T06:09:27;94.53;;;39.73;;
3379;SDS011;1703;51.964;7.642;2023-02-21T06:11:55;99.90;;;38.60;;
3379;SDS011;1703;51.964;7.642;2023-02-21T06:14:22;100.87;;;39.57;;
3379;SDS011;1703;51.964;7.642;2023-02-21T06:16:49;106.90;;;40.93;;
3379;SDS011;1703;51.964;7.642;2023-02-21T06:19:16;103.17;;;39.33;;
3379;SDS011;1703;51.964;7.642;2023-02-21T06:21:43;98.13;;;39.13;;
3379;SDS011;1703;51.964;7.642;2023-02-21T06:24:12;102.70;;;37.37;;
3379;SDS011;1703;51.964;7.642;2023-02-21T06:26:38;91.93;;;35.00;;
3379;SDS011;1703;51.964;7.642;2023-02-21T06:29:06;95.53;;;38.97;;
3379;SDS011;1703;51.964;7.642;2023-02-21T06:31:33;93.73;;;35.30;;
3379;SDS011;1703;51.964;7.642;2023-02-21T06:34:01;89.70;;;35.37;;
3379;SDS011;1703;51.964;7.642;2023-02-21T06:36:28;75.93;;;34.70;;
3379;SDS011;1703;51.964;7.642;2023-02-21T06:38:55;93.60;;;32.80;;
3379;SDS011;1703;51.964;7.642;2023-02-21T06:41:25;83.23;;;33.40;;
3379;SDS011;1703;51.964;7.642;2023-02-21T06:43:54;77.07;;;33.10;;
3379;SDS011;1703;51.964;7.642;2023-02-21T06:46:22;80.20;;;34.60;;
3379;SDS011;1703;51.964;7.642;2023-02-21T06:48:50;75.17;;;33.00;;
3379;SDS011;1703;51.964;7.642;2023-02-21T06:51:17;66.23;;;32.00;;
3379;SDS011;1703;51.964;7.642;2023-02-21T06:53:47;70.43;;;32.23;;
3379;SDS011;1703;51.964;7.642;2023-02-21T06:56:15;75.33;;;37.10;;
3379;SDS011;1703;51.964;7.642;2023-02-21T06:58:43;78.37;;;34.57;;
3379;SDS011;1703;51.964;7.642;2023-02-21T07:01:10;73.77;;;32.63;;
3379;SDS011;1703;51.964;7.642;2023-02-21T07:03:37;72.80;;;31.23;;
3379;SDS011;1703;51.964;7.642;2023-02-21T07:06:07;83.30;;;31.27;;
3379;SDS011;1703;51.964;7.642;2023-02-21T07:08:33;70.63;;;30.23;;
3379;SDS011;1703;51.964;7.642;2023-02-21T07:11:00;73.47;;;31.70;;
3379;SDS011;1703;51.964;7.642;2023-02-21T07:13:27;71.60;;;33.30;;
3379;SDS011;1703;51.964;7.642;2023-02-21T07:15:55;85.67;;;31.80;;
3379;SDS011;1703;51.964;7.642;2023-02-21T07:18:22;67.10;;;30.47;;
3379;SDS011;1703;51.964;7.642;2023-02-21T07:20:49;73.00;;;31.43;;
3379;SDS011;1703;51.964;7.642;2023-02-21T07:23:15;68.60;;;29.07;;
3379;SDS011;1703;51.964;7.642;2023-02-21T07:25:42;74.70;;;31.43;;
3379;SDS011;1703;51.964;7.642;2023-02-21T07:28:09;68.80;;;30.80;;
3379;SDS011;1703;51.964;7.642;2023-02-21T07:30:36;78.50;;;33.90;;
3379;SDS011;1703;51.964;7.642;2023-02-21T07:33:04;80.93;;;34.43;;
3379;SDS011;1703;51.964;7.642;2023-02-21T07:35:31;87.50;;;34.07;;
3379;SDS011;1703;51.964;7.642;2023-02-21T07:37:58;78.57;;;34.87;;
3379;SDS011;1703;51.964;7.642;2023-02-21T07:40:24;75.87;;;32.77;;
3379;SDS011;1703;51.964;7.642;2023-02-21T07:42:51;83.33;;;32.77;;
3379;SDS011;1703;51.964;7.642;2023-02-21T07:45:18;82.63;;;33.90;;
3379;SDS011;1703;51.964;7.642;2023-02-21T07:47:45;98.03;;;38.00;;
3379;SDS011;1703;51.964;7.642;2023-02-21T07:50:15;101.80;;;42.23;;
3379;SDS011;1703;51.964;7.642;2023-02-21T07:52:42;103.87;;;41.27;;
3379;SDS011;1703;51.964;7.642;2023-02-21T07:55:25;93.03;;;40.70;;
3379;SDS011;1703;51.964;7.642;2023-02-21T07:58:12;86.17;;;35.20;;
3379;SDS011;1703;51.964;7.642;2023-02-21T08:00:50;84.27;;;35.87;;
3379;SDS011;1703;51.964;7.642;2023-02-21T08:03:23;112.30;;;38.17;;
3379;SDS011;1703;51.964;7.642;2023-02-21T08:06:30;89.70;;;35.30;;
3379;SDS011;1703;51.964;7.642;2023-02-21T08:09:13;96.37;;;38.50;;
3379;SDS011;1703;51.964;7.642;2023-02-21T08:12:30;123.80;;;39.33;;
3379;SDS011;1703;51.964;7.642;2023-02-21T08:15:18;108.77;;;38.37;;
3379;SDS011;1703;51.964;7.642;2023-02-21T08:17:48;102.40;;;38.07;;
3379;SDS011;1703;51.964;7.642;2023-02-21T08:20:17;108.73;;;36.80;;
3379;SDS011;1703;51.964;7.642;2023-02-21T08:22:46;96.10;;;36.87;;
3379;SDS011;1703;51.964;7.642;2023-02-21T08:25:13;99.77;;;38.67;;
3379;SDS011;1703;51.964;7.642;2023-02-21T08:27:41;98.00;;;39.50;;
3379;SDS011;1703;51.964;7.642;2023-02-21T08:30:10;104.60;;;37.77;;
3379;SDS011;1703;51.964;7.642;2023-02-21T08:32:39;94.33;;;36.13;;
3379;SDS011;1703;51.964;7.642;2023-02-21T08:35:09;109.57;;;38.17;;
3379;SDS011;1703;51.964;7.642;2023-02-21T08:37:39;102.37;;;34.77;;
3379;SDS011;1703;51.964;7.642;2023-02-21T08:40:11;98.43;;;37.43;;
3379;SDS011;1703;51.964;7.642;2023-02-21T08:42:38;92.47;;;38.10;;
3379;SDS011;1703;51.964;7.642;2023-02-21T08:45:05;94.83;;;37.57;;
3379;SDS011;1703;51.964;7.642;2023-02-21T08:47:35;95.97;;;39.80;;
3379;SDS011;1703;51.964;7.642;2023-02-21T08:50:01;102.00;;;39.47;;
3379;SDS011;1703;51.964;7.642;2023-02-21T08:52:28;108.73;;;40.53;;
3379;SDS011;1703;51.964;7.642;2023-02-21T08:54:55;94.50;;;36.93;;
3379;SDS011;1703;51.964;7.642;2023-02-21T08:57:24;108.20;;;38.10;;
3379;SDS011;1703;51.964;7.642;2023-02-21T08:59:50;98.57;;;39.17;;
3379;SDS011;1703;51.964;7.642;2023-02-21T09:02:18;96.73;;;36.67;;
3379;SDS011;1703;51.964;7.642;2023-02-21T09:04:46;105.87;;;36.77;;
3379;SDS011;1703;51.964;7.642;2023-02-21T09:07:14;115.27;;;39.40;;
3379;SDS011;1703;51.964;7.642;2023-02-21T09:09:41;114.40;;;39.10;;
3379;SDS011;1703;51.964;7.642;2023-02-21T09:12:08;110.20;;;39.13;;
3379;SDS011;1703;51.964;7.642;2023-02-21T09:14:38;103.57;;;39.70;;
3379;SDS011;1703;51.964;7.642;2023-02-21T09:17:07;108.47;;;38.10;;
3379;SDS011;1703;51.964;7.642;2023-02-21T09:19:35;117.10;;;38.67;;
3379;SDS011;1703;51.964;7.642;2023-02-21T09:22:02;116.53;;;38.30;;
3379;SDS011;1703;51.964;7.642;2023-02-21T09:24:29;93.77;;;39.70;;
3379;SDS011;1703;51.964;7.642;2023-02-21T09:26:57;94.20;;;37.60;;
3379;SDS011;1703;51.964;7.642;2023-02-21T09:29:27;102.47;;;36.23;;
3379;SDS011;1703;51.964;7.642;2023-02-21T09:31:56;98.73;;;36.80;;
3379;SDS011;1703;51.964;7.642;2023-02-21T09:34:23;93.40;;;37.23;;
3379;SDS011;1703;51.964;7.642;2023-02-21T09:36:50;102.87;;;38.37;;
3379;SDS011;1703;51.964;7.642;2023-02-21T09:39:19;105.60;;;36.90;;
3379;SDS011;1703;51.964;7.642;2023-02-21T09:41:46;93.87;;;34.33;;
3379;SDS011;1703;51.964;7.642;2023-02-21T09:44:16;86.77;;;36.50;;
3379;SDS011;1703;51.964;7.642;2023-02-21T09:46:45;79.80;;;32.53;;
3379;SDS011;1703;51.964;7.642;2023-02-21T09:52:05;94.37;;;35.33;;
3379;SDS011;1703;51.964;7.642;2023-02-21T10:30:18;67.67;;;28.73;;
3379;SDS011;1703;51.964;7.642;2023-02-21T10:33:04;76.20;;;25.17;;
3379;SDS011;1703;51.964;7.642;2023-02-21T10:43:37;52.93;;;24.90;;
3379;SDS011;1703;51.964;7.642;2023-02-21T10:47:03;64.27;;;24.67;;
3379;SDS011;1703;51.964;7.642;2023-02-21T10:53:26;51.87;;;21.17;;
3379;SDS011;1703;51.964;7.642;2023-02-21T10:58:51;49.90;;;21.77;;
3379;SDS011;1703;51.964;7.642;2023-02-21T11:04:54;51.50;;;19.73;;
3379;SDS011;1703;51.964;7.642;2023-02-21T11:08:40;44.70;;;21.10;;
3379;SDS011;1703;51.964;7.642;2023-02-21T11:11:46;42.43;;;18.17;;
3379;SDS011;1703;51.964;7.642;2023-02-21T11:14:31;41.20;;;20.20;;
3379;SDS011;1703;51.964;7.642;2023-02-21T11:17:17;37.70;;;20.77;;
3379;SDS011;1703;51.964;7.642;2023-02-21T11:20:47;43.17;;;19.00;;
3379;SDS011;1703;51.964;7.642;2023-02-21T11:23:18;41.10;;;19.37;;
3379;SDS011;1703;51.964;7.642;2023-02-21T11:25:47;43.00;;;21.60;;
3379;SDS011;1703;51.964;7.642;2023-02-21T11:28:17;39.80;;;20.00;;
3379;SDS011;1703;51.964;7.642;2023-02-21T11:30:48;41.73;;;18.70;;
3379;SDS011;1703;51.964;7.642;2023-02-21T11:33:17;48.43;;;21.10;;
3379;SDS011;1703;51.964;7.642;2023-02-21T11:35:47;37.97;;;18.30;;
3379;SDS011;1703;51.964;7.642;2023-02-21T11:38:29;40.97;;;19.20;;
3379;SDS011;1703;51.964;7.642;2023-02-21T11:41:00;43.60;;;19.20;;
3379;SDS011;1703;51.964;7.642;2023-02-21T11:43:27;35.07;;;19.40;;
3379;SDS011;1703;51.964;7.642;2023-02-21T11:46:04;34.73;;;17.67;;
3379;SDS011;1703;51.964;7.642;2023-02-21T11:48:40;33.30;;;17.97;;
3379;SDS011;1703;51.964;7.642;2023-02-21T11:51:15;37.57;;;17.47;;
3379;SDS011;1703;51.964;7.642;2023-02-21T11:53:48;30.10;;;15.20;;
3379;SDS011;1703;51.964;7.642;2023-02-21T11:56:23;31.83;;;15.87;;
3379;SDS011;1703;51.964;7.642;2023-02-21T11:58:59;34.90;;;16.80;;
3379;SDS011;1703;51.964;7.642;2023-02-21T12:01:41;37.23;;;17.20;;
3379;SDS011;1703;51.964;7.642;2023-02-21T12:04:22;38.07;;;16.10;;
3379;SDS011;1703;51.964;7.642;2023-02-21T12:07:10;36.37;;;17.37;;
3379;SDS011;1703;51.964;7.642;2023-02-21T12:09:42;32.97;;;17.30;;
3379;SDS011;1703;51.964;7.642;2023-02-21T12:12:22;34.93;;;15.70;;
3379;SDS011;1703;51.964;7.642;2023-02-21T12:39:16;25.10;;;14.10;;
3379;SDS011;1703;51.964;7.642;2023-02-21T12:41:59;25.60;;;13.40;;
3379;SDS011;1703;51.964;7.642;2023-02-21T12:44:40;24.60;;;15.20;;
3379;SDS011;1703;51.964;7.642;2023-02-21T12:47:17;22.27;;;13.37;;
3379;SDS011;1703;51.964;7.642;2023-02-21T12:49:49;23.73;;;13.10;;
3379;SDS011;1703;51.964;7.642;2023-02-21T12:52:22;24.30;;;12.93;;
3379;SDS011;1703;51.964;7.642;2023-02-21T12:54:56;26.90;;;13.40;;
3379;SDS011;1703;51.964;7.642;2023-02-21T12:57:29;21.57;;;11.83;;
3379;SDS011;1703;51.964;7.642;2023-02-21T13:00:02;23.60;;;14.20;;
3379;SDS011;1703;51.964;7.642;2023-02-21T13:02:41;24.40;;;12.30;;
3379;SDS011;1703;51.964;7.642;2023-02-21T13:05:15;22.93;;;12.50;;
3379;SDS011;1703;51.964;7.642;2023-02-21T13:07:48;24.57;;;13.60;;
3379;SDS011;1703;51.964;7.642;2023-02-21T13:10:19;24.27;;;13.07;;
3379;SDS011;1703;51.964;7.642;2023-02-21T13:12:50;26.83;;;14.77;;
3379;SDS011;1703;51.964;7.642;2023-02-21T13:15:22;24.33;;;13.63;;
3379;SDS011;1703;51.964;7.642;2023-02-21T13:17:55;35.13;;;14.27;;
3379;SDS011;1703;51.964;7.642;2023-02-21T13:20:26;34.73;;;16.13;;
3379;SDS011;1703;51.964;7.642;2023-02-21T13:26:09;24.73;;;12.83;;
3379;SDS011;1703;51.964;7.642;2023-02-21T13:28:49;25.37;;;12.93;;
3379;SDS011;1703;51.964;7.642;2023-02-21T13:31:18;21.60;;;13.83;;
3379;SDS011;1703;51.964;7.642;2023-02-21T13:33:48;24.10;;;13.53;;
3379;SDS011;1703;51.964;7.642;2023-02-21T13:36:24;23.47;;;13.07;;
3379;SDS011;1703;51.964;7.642;2023-02-21T13:39:15;24.07;;;11.60;;
3379;SDS011;1703;51.964;7.642;2023-02-21T13:41:46;24.73;;;14.97;;
3379;SDS011;1703;51.964;7.642;2023-02-21T13:44:29;26.23;;;14.37;;
3379;SDS011;1703;51.964;7.642;2023-02-21T13:47:31;30.47;;;15.57;;
3379;SDS011;1703;51.964;7.642;2023-02-21T13:50:59;27.90;;;14.13;;
3379;SDS011;1703;51.964;7.642;2023-02-21T13:54:06;32.10;;;14.60;;
3379;SDS011;1703;51.964;7.642;2023-02-21T13:56:39;30.57;;;14.80;;
3379;SDS011;1703;51.964;7.642;2023-02-21T14:02:14;27.63;;;14.73;;
3379;SDS011;1703;51.964;7.642;2023-02-21T14:04:57;26.47;;;13.47;;
3379;SDS011;1703;51.964;7.642;2023-02-21T14:10:32;23.27;;;13.50;;
3379;SDS011;1703;51.964;7.642;2023-02-21T14:13:05;25.63;;;14.20;;
3379;SDS011;1703;51.964;7.642;2023-02-21T14:15:45;27.73;;;15.70;;
3379;SDS011;1703;51.964;7.642;2023-02-21T14:18:15;39.47;;;21.07;;
3379;SDS011;1703;51.964;7.642;2023-02-21T14:20:47;40.37;;;19.90;;
3379;SDS011;1703;51.964;7.642;2023-02-21T14:23:16;39.63;;;20.37;;
3379;SDS011;1703;51.964;7.642;2023-02-21T14:25:55;36.30;;;21.73;;
3379;SDS011;1703;51.964;7.642;2023-02-21T14:34:16;32.60;;;16.03;;
3379;SDS011;1703;51.964;7.642;2023-02-21T14:36:49;32.03;;;16.77;;
3379;SDS011;1703;51.964;7.642;2023-02-21T14:39:17;35.60;;;16.33;;
3379;SDS011;1703;51.964;7.642;2023-02-21T14:41:56;27.37;;;15.03;;
3379;SDS011;1703;51.964;7.642;2023-02-21T14:44:38;38.37;;;18.27;;
3379;SDS011;1703;51.964;7.642;2023-02-21T14:50:33;33.07;;;17.40;;
3379;SDS011;1703;51.964;7.642;2023-02-21T14:53:18;48.07;;;20.27;;
3379;SDS011;1703;51.964;7.642;2023-02-21T14:56:36;41.80;;;19.23;;
3379;SDS011;1703;51.964;7.642;2023-02-21T14:59:17;33.00;;;18.93;;
3379;SDS011;1703;51.964;7.642;2023-02-21T15:02:13;37.53;;;17.47;;
3379;SDS011;1703;51.964;7.642;2023-02-21T15:04:45;32.00;;;17.20;;
3379;SDS011;1703;51.964;7.642;2023-02-21T15:07:17;33.23;;;17.80;;
3379;SDS011;1703;51.964;7.642;2023-02-21T15:12:45;24.13;;;12.90;;
3379;SDS011;1703;51.964;7.642;2023-02-21T15:15:15;35.30;;;15.53;;
3379;SDS011;1703;51.964;7.642;2023-02-21T15:17:53;28.20;;;16.40;;
3379;SDS011;1703;51.964;7.642;2023-02-21T15:20:26;20.50;;;12.53;;
3379;SDS011;1703;51.964;7.642;2023-02-21T15:22:55;21.50;;;13.83;;
3379;SDS011;1703;51.964;7.642;2023-02-21T15:25:24;24.17;;;12.63;;
3379;SDS011;1703;51.964;7.642;2023-02-21T15:27:52;19.80;;;14.00;;
3379;SDS011;1703;51.964;7.642;2023-02-21T15:30:22;27.20;;;16.00;;
3379;SDS011;1703;51.964;7.642;2023-02-21T15:32:54;21.57;;;13.10;;
3379;SDS011;1703;51.964;7.642;2023-02-21T15:35:26;19.87;;;11.07;;
3379;SDS011;1703;51.964;7.642;2023-02-21T15:37:57;20.63;;;10.97;;
3379;SDS011;1703;51.964;7.642;2023-02-21T15:40:29;19.50;;;12.57;;
3379;SDS011;1703;51.964;7.642;2023-02-21T15:42:56;22.23;;;11.90;;
3379;SDS011;1703;51.964;7.642;2023-02-21T15:45:24;27.20;;;14.57;;
3379;SDS011;1703;51.964;7.642;2023-02-21T15:47:54;26.03;;;14.17;;
3379;SDS011;1703;51.964;7.642;2023-02-21T15:50:26;24.67;;;14.50;;
3379;SDS011;1703;51.964;7.642;2023-02-21T15:53:09;28.60;;;14.97;;
3379;SDS011;1703;51.964;7.642;2023-02-21T15:55:42;33.20;;;16.50;;
3379;SDS011;1703;51.964;7.642;2023-02-21T15:58:14;32.27;;;17.10;;
3379;SDS011;1703;51.964;7.642;2023-02-21T16:00:43;34.03;;;17.80;;
3379;SDS011;1703;51.964;7.642;2023-02-21T16:03:27;34.47;;;17.57;;
3379;SDS011;1703;51.964;7.642;2023-02-21T16:06:07;27.70;;;14.10;;
3379;SDS011;1703;51.964;7.642;2023-02-21T16:08:51;28.80;;;16.77;;
3379;SDS011;1703;51.964;7.642;2023-02-21T16:11:43;30.47;;;16.17;;
3379;SDS011;1703;51.964;7.642;2023-02-21T16:14:16;33.03;;;18.77;;
3379;SDS011;1703;51.964;7.642;2023-02-21T16:16:47;29.27;;;16.50;;
3379;SDS011;1703;51.964;7.642;2023-02-21T16:19:18;34.83;;;18.50;;
3379;SDS011;1703;51.964;7.642;2023-02-21T16:21:46;31.00;;;16.87;;
3379;SDS011;1703;51.964;7.642;2023-02-21T16:24:26;29.53;;;17.30;;
3379;SDS011;1703;51.964;7.642;2023-02-21T16:27:03;29.67;;;17.53;;
3379;SDS011;1703;51.964;7.642;2023-02-21T16:29:31;38.80;;;18.80;;
3379;SDS011;1703;51.964;7.642;2023-02-21T16:31:58;40.47;;;20.33;;
3379;SDS011;1703;51.964;7.642;2023-02-21T16:34:25;47.73;;;22.27;;
3379;SDS011;1703;51.964;7.642;2023-02-21T16:37:00;42.07;;;22.20;;
3379;SDS011;1703;51.964;7.642;2023-02-21T16:39:29;50.30;;;24.20;;
3379;SDS011;1703;51.964;7.642;2023-02-21T16:41:58;41.53;;;22.60;;
3379;SDS011;1703;51.964;7.642;2023-02-21T16:44:27;51.53;;;27.17;;
3379;SDS011;1703;51.964;7.642;2023-02-21T16:46:54;54.53;;;25.63;;
3379;SDS011;1703;51.964;7.642;2023-02-21T16:53:09;50.43;;;26.43;;
3379;SDS011;1703;51.964;7.642;2023-02-21T16:55:23;58.00;;;29.20;;
3379;SDS011;1703;51.964;7.642;2023-02-21T16:57:56;52.77;;;27.20;;
3379;SDS011;1703;51.964;7.642;2023-02-21T17:04:17;58.87;;;31.00;;
3379;SDS011;1703;51.964;7.642;2023-02-21T17:06:47;62.90;;;32.10;;
3379;SDS011;1703;51.964;7.642;2023-02-21T17:09:18;63.20;;;35.40;;
3379;SDS011;1703;51.964;7.642;2023-02-21T17:11:47;72.47;;;35.60;;
3379;SDS011;1703;51.964;7.642;2023-02-21T17:14:14;76.87;;;35.27;;
3379;SDS011;1703;51.964;7.642;2023-02-21T17:16:41;78.20;;;38.13;;
3379;SDS011;1703;51.964;7.642;2023-02-21T17:19:10;84.77;;;39.27;;
3379;SDS011;1703;51.964;7.642;2023-02-21T17:21:39;101.40;;;43.00;;
3379;SDS011;1703;51.964;7.642;2023-02-21T17:24:06;89.60;;;44.77;;